createdAt,value
2023-05-05T00:01:29.729Z,98836.02
2023-05-05T00:04:00.807Z,98833.92
2023-05-05T00:06:32.117Z,98832.35
2023-05-05T00:09:03.148Z,98832.73
2023-05-05T00:11:34.102Z,98832.98
2023-05-05T00:14:05.329Z,98826.95
2023-05-05T00:16:38.803Z,98825.73
2023-05-05T00:19:10.387Z,98826.31
2023-05-05T00:21:41.449Z,98827.79
2023-05-05T00:24:13.404Z,98827.00
2023-05-05T00:26:44.409Z,98825.85
2023-05-05T00:29:15.137Z,98825.47
2023-05-05T00:31:46.293Z,98826.96
2023-05-05T00:34:17.771Z,98826.45
2023-05-05T00:36:49.672Z,98822.78
2023-05-05T00:39:20.867Z,98821.78
2023-05-05T00:41:51.807Z,98819.59
2023-05-05T00:44:45.149Z,98820.20
2023-05-05T00:47:17.413Z,98821.20
2023-05-05T00:49:48.130Z,98823.40
2023-05-05T00:52:19.620Z,98822.53
2023-05-05T00:54:51.051Z,98822.58
2023-05-05T00:57:22.529Z,98818.59
2023-05-05T00:59:51.623Z,98816.27
2023-05-05T01:02:23.019Z,98818.85
2023-05-05T01:04:55.782Z,98817.80
2023-05-05T01:07:30.184Z,98816.40
2023-05-05T01:10:36.748Z,98812.86
2023-05-05T01:13:19.687Z,98812.63
2023-05-05T01:16:00.706Z,98806.61
2023-05-05T01:19:21.146Z,98808.23
2023-05-05T01:21:57.732Z,98804.84
2023-05-05T01:24:55.216Z,98800.59
2023-05-05T01:27:42.304Z,98801.00
2023-05-05T01:30:50.995Z,98797.95
2023-05-05T01:33:27.448Z,98797.85
2023-05-05T01:36:07.179Z,98793.71
2023-05-05T01:38:41.348Z,98790.46
2023-05-05T01:41:41.470Z,98789.96
2023-05-05T01:44:16.309Z,98789.95
2023-05-05T01:46:50.573Z,98791.49
2023-05-05T01:49:24.098Z,98785.95
2023-05-05T01:51:57.759Z,98784.48
2023-05-05T01:54:29.990Z,98784.31
2023-05-05T01:57:03.668Z,98784.77
2023-05-05T01:59:36.045Z,98784.24
2023-05-05T02:02:10.462Z,98781.54
2023-05-05T02:04:44.531Z,98781.73
2023-05-05T02:07:17.956Z,98782.65
2023-05-05T02:09:50.269Z,98786.15
2023-05-05T02:12:24.091Z,98782.68
2023-05-05T02:14:57.593Z,98779.33
2023-05-05T02:17:28.242Z,98778.46
2023-05-05T02:20:02.322Z,98770.84
2023-05-05T02:22:34.446Z,98767.05
2023-05-05T02:25:06.092Z,98768.17
2023-05-05T02:27:40.306Z,98769.32
2023-05-05T02:30:15.636Z,98766.60
2023-05-05T02:33:07.554Z,98769.31
2023-05-05T02:35:41.678Z,98770.61
2023-05-05T02:38:17.996Z,98766.88
2023-05-05T02:40:55.578Z,98767.49
2023-05-05T02:43:30.060Z,98766.62
2023-05-05T02:46:03.503Z,98769.98
2023-05-05T02:48:35.519Z,98768.21
2023-05-05T02:51:07.800Z,98765.09
2023-05-05T02:53:41.551Z,98760.27
2023-05-05T02:56:25.636Z,98761.52
2023-05-05T02:59:38.428Z,98763.70
2023-05-05T03:02:35.102Z,98762.44
2023-05-05T03:05:23.773Z,98762.36
2023-05-05T03:08:20.967Z,98761.86
2023-05-05T03:11:13.658Z,98762.19
2023-05-05T03:13:50.687Z,98765.77
2023-05-05T03:16:25.423Z,98768.10
2023-05-05T03:18:57.086Z,98768.95
2023-05-05T03:21:29.433Z,98770.86
2023-05-05T03:24:01.266Z,98771.73
2023-05-05T03:26:30.444Z,98776.36
2023-05-05T03:29:01.384Z,98777.70
2023-05-05T03:31:34.514Z,98775.75
2023-05-05T03:34:06.390Z,98778.23
2023-05-05T03:36:41.654Z,98780.80
2023-05-05T03:39:15.220Z,98781.54
2023-05-05T03:41:46.645Z,98787.13
2023-05-05T03:44:17.794Z,98785.98
2023-05-05T03:46:48.808Z,98785.71
2023-05-05T03:49:20.571Z,98787.69
2023-05-05T03:51:53.758Z,98793.63
2023-05-05T03:54:25.091Z,98796.12
2023-05-05T03:57:16.844Z,98797.61
2023-05-05T03:59:46.400Z,98799.27
2023-05-05T04:02:18.324Z,98798.00
2023-05-05T04:04:47.479Z,98801.25
2023-05-05T04:07:15.972Z,98805.27
2023-05-05T04:09:47.285Z,98804.94
2023-05-05T04:12:16.833Z,98804.41
2023-05-05T04:14:45.364Z,98808.97
2023-05-05T04:17:14.328Z,98811.47
2023-05-05T04:19:44.915Z,98812.36
2023-05-05T04:22:14.576Z,98812.47
2023-05-05T04:24:45.254Z,98814.63
2023-05-05T04:27:13.664Z,98812.35
2023-05-05T04:29:42.391Z,98813.73
2023-05-05T04:32:14.817Z,98810.23
2023-05-05T04:34:44.677Z,98809.67
2023-05-05T04:37:13.816Z,98813.91
2023-05-05T04:39:42.417Z,98812.77
2023-05-05T04:42:10.927Z,98817.66
2023-05-05T04:44:39.592Z,98812.66
2023-05-05T04:47:08.991Z,98811.07
2023-05-05T04:49:40.441Z,98808.73
2023-05-05T04:52:16.189Z,98814.09
2023-05-05T04:54:45.982Z,98815.63
2023-05-05T04:57:14.475Z,98816.53
2023-05-05T04:59:43.882Z,98816.32
2023-05-05T05:02:13.201Z,98813.84
2023-05-05T05:04:44.968Z,98815.56
2023-05-05T05:07:15.863Z,98819.77
2023-05-05T05:09:46.724Z,98826.05
2023-05-05T05:12:17.564Z,98828.44
2023-05-05T05:14:45.848Z,98836.10
2023-05-05T05:17:16.135Z,98836.42
2023-05-05T05:19:46.191Z,98837.58
2023-05-05T05:22:17.722Z,98838.73
2023-05-05T05:24:48.797Z,98836.30
2023-05-05T05:27:20.154Z,98837.91
2023-05-05T05:29:52.029Z,98849.79
2023-05-05T05:32:21.810Z,98846.98
2023-05-05T05:34:50.593Z,98852.87
2023-05-05T05:37:38.929Z,98852.77
2023-05-05T05:40:11.117Z,98854.46
2023-05-05T05:42:42.928Z,98854.20
2023-05-05T05:45:12.779Z,98849.38
2023-05-05T05:47:42.712Z,98851.04
2023-05-05T05:50:15.146Z,98850.22
2023-05-05T05:52:43.827Z,98844.90
2023-05-05T05:55:14.958Z,98851.28
2023-05-05T05:57:46.865Z,98854.02
2023-05-05T06:00:19.812Z,98853.29
2023-05-05T06:02:53.100Z,98857.94
2023-05-05T06:05:47.102Z,98857.82
2023-05-05T06:08:19.313Z,98853.48
2023-05-05T06:10:55.365Z,98853.72
